createdAt,value
2022-10-25T00:02:26.086Z,1008.08
2022-10-25T00:08:46.003Z,1008.14
2022-10-25T00:15:09.032Z,1008.1
2022-10-25T00:21:28.984Z,1008.1
2022-10-25T00:27:52.033Z,1008.1
2022-10-25T00:34:12.009Z,1008.18
2022-10-25T00:40:35.009Z,1008.22
2022-10-25T00:46:54.966Z,1008.24
2022-10-25T00:53:18.021Z,1008.28
2022-10-25T00:59:37.988Z,1008.34
2022-10-25T01:06:01.003Z,1008.41
2022-10-25T01:12:21.005Z,1008.43
2022-10-25T01:18:43.989Z,1008.47
2022-10-25T01:25:04.053Z,1008.51
2022-10-25T01:31:27.017Z,1008.53
2022-10-25T01:37:47.240Z,1008.55
2022-10-25T01:44:10.011Z,1008.59
2022-10-25T01:50:30.138Z,1008.57
2022-10-25T01:56:52.995Z,1008.61
2022-10-25T02:03:13.010Z,1008.63
2022-10-25T02:09:36.008Z,1008.63
2022-10-25T02:15:55.986Z,1008.65
2022-10-25T02:22:19.015Z,1008.65
2022-10-25T02:28:39.011Z,1008.65
2022-10-25T02:35:02.024Z,1008.65
2022-10-25T02:41:21.978Z,1008.63
2022-10-25T02:47:45.342Z,1008.65
2022-10-25T02:54:04.989Z,1008.67
2022-10-25T03:00:28.049Z,1008.67
2022-10-25T03:06:48.004Z,1008.71
2022-10-25T03:13:10.991Z,1008.73
2022-10-25T03:19:31.003Z,1008.83
2022-10-25T03:42:37.060Z,1008.92
2022-10-25T03:48:59.980Z,1008.98
2022-10-25T03:55:19.980Z,1008.98
2022-10-25T04:01:43.147Z,1008.98
2022-10-25T04:08:02.985Z,1009.02
2022-10-25T04:14:25.987Z,1009
2022-10-25T04:20:46.044Z,1009.02
2022-10-25T04:27:08.981Z,1009.04
2022-10-25T04:33:28.989Z,1009.12
2022-10-25T04:39:52.047Z,1009.22
2022-10-25T04:46:12.030Z,1009.3
2022-10-25T04:52:34.967Z,1009.31
2022-10-25T04:58:55.069Z,1009.39
2022-10-25T05:05:17.984Z,1009.47
2022-10-25T05:11:38.014Z,1009.51
2022-10-25T05:18:01.063Z,1009.53
2022-10-25T05:24:20.974Z,1009.59
2022-10-25T05:30:44.009Z,1009.69
2022-10-25T05:37:04.028Z,1009.69
2022-10-25T05:43:26.988Z,1009.75
2022-10-25T05:49:46.997Z,1009.77
2022-10-25T05:56:10.023Z,1009.86
2022-10-25T06:02:30.038Z,1009.9
2022-10-25T06:08:52.978Z,1009.9
2022-10-25T06:15:13.139Z,1009.94
2022-10-25T06:21:35.996Z,1010.02
2022-10-25T06:27:55.973Z,1010.06
2022-10-25T06:34:19.027Z,1010.08
2022-10-25T06:40:38.992Z,1010.18
2022-10-25T06:47:16.786Z,1010.31
2022-10-25T06:53:22.041Z,1010.39
2022-10-25T06:59:44.996Z,1010.47
2022-10-25T07:06:05.022Z,1010.55
2022-10-25T07:12:28.026Z,1010.71
2022-10-25T07:18:47.973Z,1010.79
2022-10-25T07:25:10.997Z,1010.85
2022-10-25T07:31:32.010Z,1010.89
2022-10-25T07:37:54.986Z,1010.91
2022-10-25T07:44:17.583Z,1010.97
2022-10-25T07:50:38.022Z,1011.01
2022-10-25T07:56:57.992Z,1011.05
2022-10-25T08:03:21.010Z,1011.07
2022-10-25T08:09:41.033Z,1011.09
2022-10-25T08:16:04.190Z,1011.09
2022-10-25T08:22:24.193Z,1011.1
2022-10-25T08:28:47.346Z,1011.1
2022-10-25T08:52:10.513Z,1011.05
2022-10-25T08:58:28.988Z,1011.05
2022-10-25T09:04:51.987Z,1011.05
2022-10-25T09:11:12.018Z,1011.09
2022-10-25T09:17:35.001Z,1011.14
2022-10-25T09:23:55.001Z,1011.2
2022-10-25T09:30:18.076Z,1011.26
2022-10-25T09:36:38.030Z,1011.36
2022-10-25T09:43:01.034Z,1011.42
2022-10-25T09:49:21.268Z,1011.53
2022-10-25T09:55:44.003Z,1011.61
2022-10-25T10:02:04.157Z,1011.65
2022-10-25T10:08:27.027Z,1011.69
2022-10-25T10:14:46.979Z,1011.73
2022-10-25T10:21:10.006Z,1011.77
2022-10-25T10:27:30.027Z,1011.79
2022-10-25T10:33:52.982Z,1011.83
2022-10-25T10:40:13.359Z,1011.85
2022-10-25T10:46:36.015Z,1011.87
2022-10-25T10:52:58.196Z,1011.85
2022-10-25T10:59:18.990Z,1011.83
2022-10-25T11:05:39.045Z,1011.85
2022-10-25T11:12:01.989Z,1011.85
2022-10-25T11:18:21.998Z,1011.91
2022-10-25T11:24:45.115Z,1011.96
2022-10-25T11:31:04.984Z,1011.91
2022-10-25T11:37:28.014Z,1011.89
2022-10-25T11:43:48.099Z,1011.85
2022-10-25T11:50:11.009Z,1011.79
2022-10-25T11:56:30.987Z,1011.79
2022-10-25T12:02:54.145Z,1011.85
2022-10-25T12:09:13.991Z,1011.85
2022-10-25T12:15:37.001Z,1011.87
2022-10-25T12:21:57.902Z,1011.83
2022-10-25T12:28:19.993Z,1011.81
2022-10-25T12:34:39.980Z,1011.79
2022-10-25T12:41:03.129Z,1011.73
2022-10-25T12:47:24.058Z,1011.71
2022-10-25T12:53:46.990Z,1011.65
2022-10-25T13:00:07.407Z,1011.61
2022-10-25T13:06:29.984Z,1011.63
2022-10-25T13:12:50.194Z,1011.59
2022-10-25T13:19:13.530Z,1011.57
2022-10-25T13:25:32.991Z,1011.53
2022-10-25T13:31:55.990Z,1011.49
2022-10-25T13:38:16.122Z,1011.46
2022-10-25T13:44:39.033Z,1011.46
2022-10-25T13:50:59.008Z,1011.51
2022-10-25T13:57:22.028Z,1011.48
2022-10-25T14:21:22.022Z,1011.34
2022-10-25T14:27:41.983Z,1011.3
2022-10-25T14:34:04.997Z,1011.28
2022-10-25T14:40:25.015Z,1011.28
2022-10-25T14:46:48.013Z,1011.22
2022-10-25T14:53:07.978Z,1011.22
2022-10-25T14:59:31.042Z,1011.14
2022-10-25T15:05:50.989Z,1011.14
2022-10-25T15:12:13.977Z,1011.09
2022-10-25T15:18:34.037Z,1011.09
2022-10-25T15:24:56.983Z,1011.1
2022-10-25T15:31:17.309Z,1011.05
2022-10-25T15:37:39.995Z,1011.01
2022-10-25T15:43:59.992Z,1011.03
2022-10-25T15:50:22.986Z,1011.09
2022-10-25T15:56:43.017Z,1010.99
2022-10-25T16:03:05.997Z,1010.93
2022-10-25T16:09:25.986Z,1010.89
2022-10-25T16:15:49.048Z,1010.89
2022-10-25T16:22:09.002Z,1010.91
2022-10-25T16:28:32.012Z,1010.97
2022-10-25T16:34:52.001Z,1010.97
2022-10-25T16:41:15.257Z,1010.97
2022-10-25T16:47:34.971Z,1010.97
2022-10-25T16:53:58.022Z,1010.97
2022-10-25T17:00:30.726Z,1010.93
2022-10-25T17:06:55.997Z,1010.93
2022-10-25T17:13:15.999Z,1010.91
2022-10-25T17:19:39.000Z,1010.87
2022-10-25T17:25:58.984Z,1010.85
2022-10-25T17:32:22.000Z,1010.91
2022-10-25T17:38:41.982Z,1010.91
2022-10-25T17:45:04.996Z,1010.89
2022-10-25T17:51:25.017Z,1010.85
2022-10-25T17:57:48.285Z,1010.77
2022-10-25T18:04:07.974Z,1010.79
2022-10-25T18:10:31.034Z,1010.87
2022-10-25T18:16:50.971Z,1010.87
2022-10-25T18:23:13.999Z,1010.87
2022-10-25T18:29:33.998Z,1010.87
2022-10-25T18:35:56.980Z,1010.87
2022-10-25T18:42:17.006Z,1010.87
2022-10-25T18:48:40.001Z,1010.83
2022-10-25T18:55:00.000Z,1010.87
2022-10-25T19:01:23.137Z,1010.85
2022-10-25T19:07:43.246Z,1010.81
2022-10-25T19:14:06.013Z,1010.83
2022-10-25T19:20:25.996Z,1010.85
2022-10-25T19:43:32.981Z,1010.77
2022-10-25T19:49:55.969Z,1010.77
2022-10-25T19:56:15.998Z,1010.79
2022-10-25T20:02:39.046Z,1010.77
2022-10-25T20:08:59.006Z,1010.67
2022-10-25T20:15:21.974Z,1010.63
2022-10-25T20:21:42.002Z,1010.63
2022-10-25T20:28:05.003Z,1010.55
2022-10-25T20:34:24.977Z,1010.47
2022-10-25T20:40:48.028Z,1010.43
2022-10-25T20:47:07.996Z,1010.43
2022-10-25T20:53:31.001Z,1010.39
2022-10-25T20:59:51.024Z,1010.37
2022-10-25T21:06:13.987Z,1010.35
2022-10-25T21:12:34.989Z,1010.33
2022-10-25T21:18:58.001Z,1010.25
2022-10-25T21:25:17.974Z,1010.22
2022-10-25T21:31:40.992Z,1010.16
2022-10-25T21:38:01.014Z,1010.12
2022-10-25T21:44:23.982Z,1010.12
2022-10-25T21:50:43.986Z,1010.08
2022-10-25T21:57:07.004Z,1010.06
2022-10-25T22:20:03.995Z,1010.08
2022-10-25T22:26:23.991Z,1010.08
2022-10-25T22:32:47.242Z,1010.08
2022-10-25T22:39:07.003Z,1010.02
2022-10-25T22:45:29.986Z,1009.98
2022-10-25T22:51:49.962Z,1009.94
2022-10-25T22:58:13.006Z,1009.96
2022-10-25T23:04:33.029Z,1009.94
2022-10-25T23:10:55.997Z,1009.94
2022-10-25T23:17:16.011Z,1009.94
2022-10-25T23:23:39.004Z,1009.92
2022-10-25T23:29:58.990Z,1009.92
2022-10-25T23:36:22.009Z,1009.86
2022-10-25T23:42:42.032Z,1009.8
2022-10-25T23:49:05.005Z,1009.73
2022-10-25T23:55:25.034Z,1009.69
